Mobile Regional Airport
KMOB : now visible

Airfield :











YOU CAN JOIN US ON...

 
LOGIN :

Register | Disclaimer

   EN    FR    IT 

 









Legend :    VFR   Marginal VFR   IFR   Intensive IFR   Very Intensive IFR
Visi :
Ceiling :
>= 8 km
>= 3000ft
5 to 8 km
1000 to 3000 ft
1500m to 5 km
500 to 1000 ft
800 to 1500m
200 to 500 ft
< 800m
< 200 ft
Symbols :   Thunderstorms  Fog  Heavy snow  Heavy precipitations  Wind > 20 kt






- Airport Elevation : 219 ft
- IATA code : MOB


KMOB - Mobile Regional

CURRENT METAR :
  • 130456Z AUTO 10SM CLR 24/23 A3002 RMK AO2 SLP162 T02390233 $

EXPIRED METARs :
  • 130356Z 08003KT 7SM SCT110 SCT250 24/23 A3002 RMK AO2 SLP160 T02390233 $
  • 130256Z 00000KT 7SM SCT110 BKN250 24/23 A3001 RMK AO2 SLP159 60000 T02390233 55004 $

TAF KMOB
Valid from the 13 at 06:00 until the 14 at 06:00 UTC


130520Z 1306/1406 08003KT P6SM SCT110 SCT250
FM131200 VRB03KT P6SM VCSH SCT020
FM131800 18008KT P6SM VCTS SCT030CB BKN200
PROB30 1318/1324 VRB15G25KT 3SM TSRA BKN020CB
FM140000 19005KT P6SM VCTS FEW050CB SCT100 BKN250
FM140200 VRB03KT P6SM SCT250
KZHU FIR / North America



MET'MAP, your aeronautical weather chart ! - Copyright ORBIFLY December 2007 - Disclaimer

ORBIFLY MET'MAP TEAM :

Programming & Development : Alexandra Zaïnal
Concept & original design : Baudouin d'Aumeries
Assistance for programming : Marc-Olivier Méhu
Technical & hardware support : Manuel Goepfert

Contact : metmap@orbifly.com




SOURCES & CREDITS :

   NOAA       Earth
Advisory